Time;durP1;ratioP1;P1;durP2;ratioP2;P2;SDS_P1;SDS_P2;PMS_P1;PMS_P2;Temp;Humidity;BMP_temperature;BMP_pressure;BME280_temperature;BME280_humidity;BME280_pressure;Samples;Min_cycle;Max_cycle;Signal;HPM_P1;HPM_P2
2023/06/26 00:02:24;;;;;;;4.88;3.65;;;;;;;23.60;62.49;101279.69;5015494;28;20073;-76
2023/06/26 00:04:53;;;;;;;3.97;3.58;;;;;;;23.56;63.01;101279.97;5030539;28;20045;-76
2023/06/26 00:07:18;;;;;;;6.60;4.22;;;;;;;23.53;62.87;101274.88;5035158;28;20056;-76
2023/06/26 00:09:44;;;;;;;4.20;3.90;;;;;;;23.51;63.26;101276.84;5006564;28;20305;-76
2023/06/26 00:12:09;;;;;;;6.20;4.50;;;;;;;23.48;63.47;101273.59;5015406;28;20045;-76
2023/06/26 00:14:34;;;;;;;4.10;3.80;;;;;;;23.44;63.90;101293.56;5015257;28;20065;-76
2023/06/26 00:17:00;;;;;;;4.85;3.83;;;;;;;23.42;64.27;101293.72;5015258;28;20045;-76
2023/06/26 00:19:25;;;;;;;3.63;3.40;;;;;;;23.38;64.43;101305.66;4997710;28;20550;-76
2023/06/26 00:21:51;;;;;;;3.55;3.22;;;;;;;23.36;64.54;101305.78;5014933;28;20052;-76
2023/06/26 00:24:17;;;;;;;3.80;3.50;;;;;;;23.34;64.29;101309.59;5015743;28;20268;-76
2023/06/26 00:26:46;;;;;;;5.38;4.25;;;;;;;23.29;64.28;101304.63;5015440;28;20057;-76
2023/06/26 00:29:11;;;;;;;3.90;3.60;;;;;;;23.24;64.22;101309.53;4997734;28;20104;-76
2023/06/26 00:31:37;;;;;;;4.65;3.35;;;;;;;23.21;64.31;101304.44;5015173;28;20034;-76
2023/06/26 00:34:03;;;;;;;4.97;3.45;;;;;;;23.19;64.38;101306.41;5024129;28;20037;-76
2023/06/26 00:36:28;;;;;;;4.43;3.30;;;;;;;23.15;64.16;101310.31;5016988;28;20067;-76
2023/06/26 00:38:54;;;;;;;3.83;3.33;;;;;;;23.11;64.47;101307.06;5030121;28;20091;-76
2023/06/26 00:41:19;;;;;;;4.00;3.53;;;;;;;23.07;64.37;101310.16;5015189;28;20358;-76
2023/06/26 00:43:45;;;;;;;3.42;3.05;;;;;;;23.02;64.73;101307.84;5015430;28;20064;-76
2023/06/26 00:46:13;;;;;;;3.53;3.22;;;;;;;22.97;64.79;101315.38;5015028;28;20104;-76
2023/06/26 00:48:40;;;;;;;4.13;3.00;;;;;;;22.92;64.80;101312.25;4997284;28;20088;-76
2023/06/26 00:51:06;;;;;;;2.70;2.50;;;;;;;22.90;65.00;101314.22;5014843;28;20541;-76
2023/06/26 00:53:33;;;;;;;5.38;2.78;;;;;;;22.88;64.60;101310.84;5015146;28;20021;-76
2023/06/26 00:55:59;;;;;;;2.92;2.72;;;;;;;22.85;65.24;101308.41;5014838;28;20056;-76
2023/06/26 00:58:24;;;;;;;3.13;2.70;;;;;;;22.80;65.15;101306.16;5014756;28;20042;-76
2023/06/26 01:00:54;;;;;;;5.53;3.10;;;;;;;22.75;65.32;101311.03;5015006;28;20041;-76
2023/06/26 01:03:23;;;;;;;3.95;3.17;;;;;;;22.71;65.83;101306.94;5018212;28;20041;-76
2023/06/26 01:05:51;;;;;;;3.42;3.00;;;;;;;22.69;65.54;101314.25;5034545;28;20057;-76
2023/06/26 01:08:18;;;;;;;5.03;3.10;;;;;;;22.64;65.70;101313.78;5034608;28;20052;-76
2023/06/26 01:10:44;;;;;;;4.95;2.65;;;;;;;22.61;66.18;101315.72;5018738;28;20076;-76
2023/06/26 01:13:09;;;;;;;6.45;3.17;;;;;;;22.57;66.11;101322.28;5018423;28;20041;-76
2023/06/26 01:15:35;;;;;;;5.30;3.15;;;;;;;22.53;66.14;101312.84;5018473;28;20355;-76
2023/06/26 01:18:03;;;;;;;7.25;3.40;;;;;;;22.53;66.60;101328.84;5018474;28;20140;-76
2023/06/26 01:20:31;;;;;;;6.80;3.45;;;;;;;22.50;66.70;101321.09;5018568;28;20064;-76
2023/06/26 01:23:00;;;;;;;5.50;3.05;;;;;;;22.48;66.81;101315.06;5018157;28;20325;-76
2023/06/26 01:25:54;;;;;;;3.78;3.22;;;;;;;22.48;67.26;101295.53;5018602;28;20278;-76
2023/06/26 01:28:20;;;;;;;8.98;3.90;;;;;;;22.45;67.18;101312.66;5018664;28;20034;-76
2023/06/26 01:30:47;;;;;;;4.93;3.15;;;;;;;22.44;67.46;101294.94;5018574;28;20084;-76
2023/06/26 01:33:13;;;;;;;7.47;3.58;;;;;;;22.42;67.60;101305.75;5020726;28;20341;-76
2023/06/26 01:35:39;;;;;;;4.80;3.20;;;;;;;22.40;67.83;101305.03;5038040;28;20037;-76
2023/06/26 01:38:17;;;;;;;3.67;2.90;;;;;;;22.39;67.71;101305.16;5037747;28;20064;-76
2023/06/26 01:40:46;;;;;;;4.10;3.03;;;;;;;22.36;67.96;101308.94;5018937;28;20198;-76
2023/06/26 01:43:15;;;;;;;;;;;;;;;22.34;67.98;101321.56;5018986;28;20297;-76
2023/06/26 01:45:42;;;;;;;5.53;3.60;;;;;;;22.33;67.84;101319.84;5018510;28;19920;-76
2023/06/26 01:48:11;;;;;;;4.70;3.17;;;;;;;22.31;68.24;101319.13;5017695;28;20313;-76
2023/06/26 01:50:39;;;;;;;8.52;3.58;;;;;;;22.28;68.36;101323.88;5018188;28;20037;-76
2023/06/26 01:53:11;;;;;;;8.23;3.33;;;;;;;22.26;68.88;101318.66;5018063;28;20041;-76
2023/06/26 01:55:41;;;;;;;5.35;3.28;;;;;;;22.26;68.78;101318.66;5000119;28;20038;-76
2023/06/26 01:58:08;;;;;;;5.72;3.33;;;;;;;22.24;68.63;101312.56;5017411;28;20079;-76
2023/06/26 02:00:34;;;;;;;7.60;3.83;;;;;;;22.21;68.82;101315.50;5017725;28;20198;-76
2023/06/26 02:03:00;;;;;;;6.85;3.38;;;;;;;22.19;69.08;101317.44;5018190;28;20240;-76
2023/06/26 02:05:25;;;;;;;7.15;3.50;;;;;;;22.18;68.96;101321.09;5035844;28;20305;-76
2023/06/26 02:07:51;;;;;;;10.25;3.78;;;;;;;22.16;69.18;101323.88;5036980;28;20037;-76
2023/06/26 02:10:16;;;;;;;5.53;3.67;;;;;;;22.14;69.12;101309.84;5021696;28;20312;-76
2023/06/26 02:12:42;;;;;;;6.75;3.60;;;;;;;22.12;69.38;101313.59;5017654;28;20294;-76
2023/06/26 02:15:08;;;;;;;5.63;3.50;;;;;;;22.11;69.46;101311.91;5017362;28;20038;-76
2023/06/26 02:17:33;;;;;;;5.32;3.55;;;;;;;22.10;69.41;101319.03;5017429;28;20379;-76
2023/06/26 02:19:58;;;;;;;12.75;3.92;;;;;;;22.07;69.48;101321.13;4998988;28;20093;-76
2023/06/26 02:22:24;;;;;;;5.70;2.95;;;;;;;22.04;69.54;101330.22;5016603;28;20076;-76
2023/06/26 02:24:49;;;;;;;5.95;3.35;;;;;;;22.01;69.74;101338.47;5017070;28;20049;-76
2023/06/26 02:27:15;;;;;;;7.00;3.60;;;;;;;21.99;69.75;101324.41;4999732;28;20340;-76
2023/06/26 02:29:41;;;;;;;9.60;3.88;;;;;;;21.98;69.85;101328.06;5017376;28;20123;-76
2023/06/26 02:32:07;;;;;;;6.38;3.33;;;;;;;21.99;69.68;101337.75;5017066;28;20109;-76
2023/06/26 02:34:33;;;;;;;8.27;3.53;;;;;;;21.95;69.39;101337.13;5012795;28;20136;-76
2023/06/26 02:37:00;;;;;;;4.32;2.92;;;;;;;21.93;69.46;101331.09;5037031;28;20053;-76
2023/06/26 02:39:26;;;;;;;4.75;3.17;;;;;;;21.90;69.58;101336.66;5027939;28;20332;-76
2023/06/26 02:41:51;;;;;;;5.15;3.40;;;;;;;21.89;69.56;101344.81;5016836;28;20444;-76
2023/06/26 02:44:16;;;;;;;5.32;2.97;;;;;;;21.87;69.58;101355.59;5017000;28;20280;-76
2023/06/26 02:46:42;;;;;;;6.53;3.20;;;;;;;21.85;69.25;101346.88;5017037;28;20041;-76
2023/06/26 02:49:07;;;;;;;5.38;3.15;;;;;;;21.83;69.62;101352.31;5016545;28;20034;-76
2023/06/26 02:51:33;;;;;;;8.27;3.20;;;;;;;21.81;69.32;101348.94;4999256;28;20030;-76
2023/06/26 02:53:59;;;;;;;6.90;3.05;;;;;;;21.82;69.46;101352.44;5016510;28;20106;-76
2023/06/26 02:56:28;;;;;;;5.35;3.40;;;;;;;21.78;68.95;101353.66;5016616;28;20061;-76
2023/06/26 02:58:56;;;;;;;5.13;3.40;;;;;;;21.74;69.23;101362.84;5016287;28;20084;-76
2023/06/26 03:01:22;;;;;;;6.97;3.35;;;;;;;21.72;69.24;101359.47;4998990;28;20071;-76
2023/06/26 03:03:47;;;;;;;4.97;3.10;;;;;;;21.69;69.14;101368.56;5023441;28;20315;-76
2023/06/26 03:06:14;;;;;;;5.82;3.10;;;;;;;21.65;69.45;101369.78;4983557;28;20050;-76
2023/06/26 03:08:39;;;;;;;8.63;2.95;;;;;;;21.60;69.47;101369.31;4981624;28;20052;-76
2023/06/26 03:11:08;;;;;;;3.88;3.05;;;;;;;21.58;69.45;101369.41;5016350;28;20336;-76
2023/06/26 03:13:35;;;;;;;7.05;3.60;;;;;;;21.57;69.32;101372.19;5016457;28;20503;-76
2023/06/26 03:16:03;;;;;;;7.57;3.35;;;;;;;21.56;69.31;101374.03;5016083;28;20221;-76
2023/06/26 03:18:28;;;;;;;5.72;3.00;;;;;;;21.54;69.08;101377.75;5016477;28;20557;-76
2023/06/26 03:20:56;;;;;;;5.85;3.25;;;;;;;21.50;69.41;101377.16;5016209;28;20371;-76
2023/06/26 03:23:22;;;;;;;6.30;3.03;;;;;;;21.44;69.33;101383.78;5016307;28;20278;-76
2023/06/26 03:25:48;;;;;;;7.68;3.33;;;;;;;21.42;69.67;101384.88;5016198;28;20285;-76
2023/06/26 03:28:14;;;;;;;7.65;2.88;;;;;;;21.41;69.49;101388.50;5016258;28;20367;-76
2023/06/26 03:30:39;;;;;;;7.88;3.40;;;;;;;21.39;69.33;101390.44;5015998;28;20038;-76
2023/06/26 03:33:04;;;;;;;5.55;3.20;;;;;;;21.37;69.33;101395.88;5016591;28;20100;-76
2023/06/26 03:35:30;;;;;;;5.05;2.70;;;;;;;21.31;69.49;101396.38;5035695;28;20079;-76
2023/06/26 03:37:55;;;;;;;7.95;3.22;;;;;;;21.30;69.52;101386.66;5035564;28;20025;-76
2023/06/26 03:40:21;;;;;;;4.93;2.72;;;;;;;21.29;69.36;101387.66;5019418;28;20032;-76
2023/06/26 03:42:46;;;;;;;7.25;3.17;;;;;;;21.27;69.48;101395.75;5016030;28;20041;-76
2023/06/26 03:45:11;;;;;;;3.85;3.05;;;;;;;21.23;69.55;101391.66;5016190;28;20060;-76
2023/06/26 03:47:37;;;;;;;8.70;2.85;;;;;;;21.20;69.84;101399.84;5016002;28;20045;-76
2023/06/26 03:50:02;;;;;;;7.55;2.92;;;;;;;21.17;69.95;101392.09;5015959;28;20040;-76
2023/06/26 03:52:30;;;;;;;5.50;3.28;;;;;;;21.14;70.17;101397.69;5015602;28;20114;-76
2023/06/26 03:54:56;;;;;;;9.18;3.58;;;;;;;21.13;70.10;101403.13;4997568;28;20044;-76
2023/06/26 03:57:21;;;;;;;3.75;2.65;;;;;;;21.10;70.03;101409.50;4997746;28;20093;-76
2023/06/26 03:59:47;;;;;;;3.83;2.63;;;;;;;21.08;70.07;101403.47;4997748;28;20032;-76
2023/06/26 04:02:12;;;;;;;4.28;2.63;;;;;;;21.05;70.17;101403.72;4998076;28;20036;-76
2023/06/26 04:04:37;;;;;;;4.95;2.70;;;;;;;20.99;70.21;101405.03;5029374;28;20402;-76
2023/06/26 04:07:03;;;;;;;4.72;2.78;;;;;;;20.98;70.28;101413.13;5017248;28;20036;-76
2023/06/26 04:09:28;;;;;;;6.90;3.33;;;;;;;20.98;70.21;101421.94;5026394;28;20033;-76
2023/06/26 04:11:54;;;;;;;6.50;3.05;;;;;;;20.97;70.29;101430.91;4996990;28;20057;-76
2023/06/26 04:14:19;;;;;;;5.97;3.40;;;;;;;20.97;70.29;101438.03;5015122;28;20037;-76
2023/06/26 04:16:45;;;;;;;8.20;3.17;;;;;;;20.96;70.46;101444.34;5015698;28;20034;-76
2023/06/26 04:19:10;;;;;;;5.90;2.67;;;;;;;20.91;70.58;101447.34;5015374;28;20049;-76
2023/06/26 04:21:36;;;;;;;6.22;3.17;;;;;;;20.89;70.67;101446.59;5015767;28;20038;-76
2023/06/26 04:24:01;;;;;;;7.53;3.13;;;;;;;20.84;70.71;101448.75;5015441;28;20332;-76
2023/06/26 04:26:27;;;;;;;7.72;3.35;;;;;;;20.83;70.62;101455.03;5015272;28;20022;-76
2023/06/26 04:28:53;;;;;;;8.10;3.60;;;;;;;20.81;70.57;101454.31;5014925;28;20022;-76
2023/06/26 04:31:19;;;;;;;6.50;3.22;;;;;;;20.76;70.65;101461.81;5015285;28;20037;-76
2023/06/26 04:33:44;;;;;;;6.88;3.47;;;;;;;20.73;71.04;101454.03;5021960;28;20079;-76
2023/06/26 04:36:11;;;;;;;6.07;3.58;;;;;;;20.70;70.92;101447.09;5034496;28;20037;-76
2023/06/26 04:38:36;;;;;;;3.08;2.45;;;;;;;20.70;70.57;101461.28;5032636;28;20333;-76
2023/06/26 04:41:02;;;;;;;6.03;3.00;;;;;;;20.68;70.71;101462.34;5015354;28;20051;-76
2023/06/26 04:43:28;;;;;;;3.33;2.60;;;;;;;20.68;70.80;101471.19;5015185;28;20169;-76
2023/06/26 04:45:53;;;;;;;3.20;2.40;;;;;;;20.68;70.86;101470.34;5018941;28;20101;-76
2023/06/26 04:48:18;;;;;;;4.78;2.95;;;;;;;20.68;70.70;101476.53;5019050;28;20042;-76
2023/06/26 04:50:52;;;;;;;5.25;2.50;;;;;;;20.67;70.51;101477.47;5019011;28;20037;-76
2023/06/26 04:53:17;;;;;;;5.97;2.22;;;;;;;20.67;70.56;101476.63;5019118;28;20033;-76
2023/06/26 04:55:43;;;;;;;2.92;2.70;;;;;;;20.66;70.76;101486.41;5019037;28;20313;-76
2023/06/26 04:58:08;;;;;;;3.75;2.60;;;;;;;20.67;70.75;101481.94;5018601;28;20034;-76
2023/06/26 05:00:35;;;;;;;3.60;2.50;;;;;;;20.67;70.77;101489.94;5018824;28;20048;-76
2023/06/26 05:03:01;;;;;;;3.80;2.08;;;;;;;20.66;70.84;101493.53;5019424;28;20033;-76
2023/06/26 05:05:28;;;;;;;5.78;2.80;;;;;;;20.66;70.93;101488.22;5038223;28;20080;-76
2023/06/26 05:07:56;;;;;;;6.20;2.30;;;;;;;20.65;71.17;101499.84;5037838;28;20262;-76
2023/06/26 05:10:21;;;;;;;;;;;;;;;20.64;71.42;101503.47;5022535;28;20041;-76
2023/06/26 05:12:47;;;;;;;5.72;2.88;;;;;;;20.61;71.72;101501.00;5018095;28;19988;-76
2023/06/26 05:15:12;;;;;;;5.00;2.60;;;;;;;20.60;71.50;101509.94;5018507;28;20038;-76
2023/06/26 05:17:38;;;;;;;5.68;2.65;;;;;;;20.58;71.53;101509.22;5018344;28;20030;-76
2023/06/26 05:20:05;;;;;;;6.65;3.00;;;;;;;20.56;71.93;101519.13;5018154;28;20120;-76
2023/06/26 05:22:32;;;;;;;6.72;2.67;;;;;;;20.56;71.76;101519.13;5018390;28;20363;-76
2023/06/26 05:25:00;;;;;;;4.80;2.43;;;;;;;20.53;71.84;101526.31;5018222;28;20037;-76
2023/06/26 05:27:26;;;;;;;6.30;2.75;;;;;;;20.51;72.07;101530.91;5018644;28;20653;-76
2023/06/26 05:29:52;;;;;;;9.20;2.80;;;;;;;20.53;71.67;101541.44;5000186;28;20034;-76
2023/06/26 05:32:17;;;;;;;4.72;2.65;;;;;;;20.52;71.25;101537.94;5000770;28;20022;-76
2023/06/26 05:34:47;;;;;;;11.05;2.05;;;;;;;20.51;70.32;101540.72;5032913;28;20083;-76
2023/06/26 05:37:18;;;;;;;6.32;2.35;;;;;;;20.44;69.32;101550.94;5038125;28;20036;-76
2023/06/26 05:39:43;;;;;;;4.60;2.08;;;;;;;20.43;69.31;101554.56;5027041;28;20103;-76
2023/06/26 05:42:09;;;;;;;2.70;2.00;;;;;;;20.43;69.68;101556.34;5017934;28;20380;-76
2023/06/26 05:44:35;;;;;;;4.40;1.40;;;;;;;20.42;69.06;101565.31;5018126;28;20034;-76
2023/06/26 05:47:00;;;;;;;2.13;1.50;;;;;;;20.42;69.41;101571.47;5000066;28;20025;-76
2023/06/26 05:49:25;;;;;;;5.25;1.50;;;;;;;20.44;69.38;101582.00;5018341;28;20036;-76
2023/06/26 05:51:51;;;;;;;3.45;1.20;;;;;;;20.43;69.16;101567.00;5000366;28;20041;-76
2023/06/26 05:54:17;;;;;;;5.65;1.45;;;;;;;20.40;68.89;101570.75;5017592;28;20034;-76
2023/06/26 05:56:43;;;;;;;2.92;1.60;;;;;;;20.38;67.76;101577.97;5017646;28;20033;-76
2023/06/26 05:59:09;;;;;;;4.88;1.58;;;;;;;20.34;66.66;101579.16;5017661;28;20241;-76
2023/06/26 06:01:35;;;;;;;4.20;1.40;;;;;;;20.30;67.52;101575.88;5018277;28;20033;-76
2023/06/26 06:04:01;;;;;;;5.90;1.08;;;;;;;20.27;67.94;101576.06;5026085;28;20240;-76
2023/06/26 06:06:26;;;;;;;4.85;1.08;;;;;;;20.27;68.04;101570.75;5022876;28;20049;-76
2023/06/26 06:08:51;;;;;;;6.53;1.77;;;;;;;20.25;66.93;101583.31;5009678;28;20041;-76
2023/06/26 06:11:17;;;;;;;5.72;1.50;;;;;;;20.23;66.50;101581.69;5009884;28;20297;-76
2023/06/26 06:13:42;;;;;;;6.00;1.50;;;;;;;20.21;67.07;101595.13;5005816;28;20105;-76
2023/06/26 06:16:08;;;;;;;8.73;1.58;;;;;;;20.20;66.53;101592.56;5005736;28;20056;-76
2023/06/26 06:18:33;;;;;;;8.10;1.75;;;;;;;20.14;66.39;101600.00;5008010;28;20069;-76
2023/06/26 06:20:58;;;;;;;2.17;1.20;;;;;;;20.14;66.60;101601.84;5007182;28;20186;-76
2023/06/26 06:23:24;;;;;;;2.05;0.85;;;;;;;20.12;67.12;101612.56;5006521;28;20030;-76
2023/06/26 06:25:49;;;;;;;17.38;1.85;;;;;;;20.12;66.61;101619.69;5012233;28;20080;-76
2023/06/26 06:28:16;;;;;;;14.77;2.38;;;;;;;20.07;65.87;101620.00;5007153;28;20041;-76
2023/06/26 06:30:42;;;;;;;10.85;2.33;;;;;;;20.06;65.77;101614.78;5006740;28;20140;-76
2023/06/26 06:33:07;;;;;;;4.43;1.15;;;;;;;20.05;66.36;101623.75;5009392;28;20045;-76
2023/06/26 06:35:32;;;;;;;4.32;1.35;;;;;;;20.04;66.37;101628.19;4994823;28;20038;-76
2023/06/26 06:37:58;;;;;;;6.20;1.20;;;;;;;20.04;66.72;101625.53;5026898;28;20125;-76
2023/06/26 06:40:24;;;;;;;7.40;1.25;;;;;;;20.04;66.95;101633.50;4990547;28;20244;-76
2023/06/26 06:42:50;;;;;;;4.32;1.40;;;;;;;20.02;66.60;101631.91;5008431;28;20038;-76
2023/06/26 06:45:15;;;;;;;5.20;1.20;;;;;;;19.98;66.43;101630.44;5013535;28;20302;-76
2023/06/26 06:47:40;;;;;;;5.60;1.05;;;;;;;19.97;66.83;101637.53;5014715;28;20053;-76
2023/06/26 06:50:09;;;;;;;5.30;1.38;;;;;;;19.99;67.10;101637.44;5013957;28;20096;-76
2023/06/26 06:52:38;;;;;;;2.22;1.23;;;;;;;20.01;67.19;101651.47;5008603;28;20341;-76
2023/06/26 06:55:06;;;;;;;2.30;1.30;;;;;;;20.01;67.15;101652.34;5004389;28;20046;-76
2023/06/26 06:57:35;;;;;;;2.00;1.07;;;;;;;20.02;67.24;101659.34;4985639;28;20292;-76
2023/06/26 07:00:04;;;;;;;2.80;1.42;;;;;;;19.98;66.57;101660.50;5010333;28;20026;-76
2023/06/26 07:02:29;;;;;;;2.42;1.48;;;;;;;19.97;66.68;101656.13;5005250;28;20108;-76
2023/06/26 07:04:55;;;;;;;2.50;1.15;;;;;;;19.93;65.72;101668.78;5007213;28;20072;-76
2023/06/26 07:07:20;;;;;;;3.47;1.08;;;;;;;19.88;65.59;101660.28;5001896;28;20038;-76
2023/06/26 07:09:46;;;;;;;3.85;1.23;;;;;;;19.88;66.24;101665.59;4996999;28;20033;-76
2023/06/26 07:12:11;;;;;;;5.15;1.17;;;;;;;19.90;66.44;101665.47;4978535;28;20049;-76
2023/06/26 07:14:36;;;;;;;5.20;1.50;;;;;;;19.89;66.13;101664.63;5001754;28;20036;-76
2023/06/26 07:17:02;;;;;;;4.68;1.70;;;;;;;19.90;66.08;101666.34;5011097;28;20357;-76
2023/06/26 07:19:27;;;;;;;7.53;1.70;;;;;;;19.90;66.31;101674.31;5007037;28;20360;-76
2023/06/26 07:21:53;;;;;;;1.83;1.13;;;;;;;19.91;66.30;101677.81;5000843;28;20056;-76
2023/06/26 07:24:18;;;;;;;2.00;1.05;;;;;;;19.94;66.40;101680.28;5001814;28;20029;-76
2023/06/26 07:26:44;;;;;;;3.00;1.35;;;;;;;19.96;66.54;101685.50;5001282;28;20364;-76
2023/06/26 07:29:09;;;;;;;1.85;0.88;;;;;;;19.97;66.73;101692.50;5003446;28;20061;-76
2023/06/26 07:31:34;;;;;;;1.75;1.00;;;;;;;19.98;66.72;101694.22;4986407;28;20080;-76
2023/06/26 07:34:00;;;;;;;2.30;1.00;;;;;;;20.00;66.84;101701.13;5004248;28;20041;-76
2023/06/26 07:36:25;;;;;;;4.03;1.25;;;;;;;20.02;66.75;101703.69;4992890;28;20311;-76
2023/06/26 07:38:51;;;;;;;1.88;1.00;;;;;;;20.03;66.49;101700.06;5009356;28;20045;-76
2023/06/26 07:41:16;;;;;;;1.27;1.10;;;;;;;20.04;66.66;101699.13;4984156;28;20333;-76
2023/06/26 07:43:41;;;;;;;4.13;1.25;;;;;;;20.04;66.79;101705.28;5004312;28;20317;-76
2023/06/26 07:46:07;;;;;;;1.85;0.85;;;;;;;20.07;66.50;101701.59;5005852;28;20112;-76
2023/06/26 07:48:32;;;;;;;3.03;1.10;;;;;;;20.07;66.56;101699.78;5002245;28;20058;-76
2023/06/26 07:50:57;;;;;;;2.00;0.95;;;;;;;20.07;66.25;101706.91;5005861;28;20201;-76
2023/06/26 07:53:23;;;;;;;5.63;1.58;;;;;;;20.05;65.78;101706.16;5013067;28;20411;-76
2023/06/26 07:55:48;;;;;;;2.75;1.10;;;;;;;20.04;66.34;101710.59;4993886;28;20040;-76
2023/06/26 07:58:13;;;;;;;6.93;1.70;;;;;;;20.05;66.51;101712.31;5016516;28;20383;-76
2023/06/26 08:00:40;;;;;;;3.22;1.35;;;;;;;20.06;66.29;101719.31;5014358;28;20029;-76
2023/06/26 08:03:05;;;;;;;8.15;1.40;;;;;;;20.06;65.79;101718.47;4984525;28;20029;-76
2023/06/26 08:05:31;;;;;;;3.13;1.27;;;;;;;20.07;65.72;101725.50;5011601;28;20041;-76
2023/06/26 08:07:56;;;;;;;2.10;1.02;;;;;;;20.07;66.19;101722.84;5013399;28;20049;-76
2023/06/26 08:10:21;;;;;;;4.03;1.20;;;;;;;20.07;66.10;101731.69;5014180;28;20125;-76
2023/06/26 08:12:48;;;;;;;4.20;1.15;;;;;;;20.08;65.97;101725.41;5012518;28;20033;-76
2023/06/26 08:15:14;;;;;;;1.25;1.00;;;;;;;20.11;65.88;101725.19;5011620;28;20038;-76
2023/06/26 08:17:39;;;;;;;4.40;1.30;;;;;;;20.15;66.13;101728.50;5011759;28;20163;-76
2023/06/26 08:20:07;;;;;;;2.67;1.13;;;;;;;20.16;65.55;101729.38;5011511;28;20041;-76
2023/06/26 08:22:33;;;;;;;4.72;1.30;;;;;;;20.16;65.69;101740.84;5012249;28;20354;-76
2023/06/26 08:24:58;;;;;;;2.25;1.33;;;;;;;20.14;65.27;101735.63;5010636;28;20038;-76
2023/06/26 08:27:24;;;;;;;7.00;1.52;;;;;;;20.16;65.40;101740.84;5011515;28;20121;-76
2023/06/26 08:29:50;;;;;;;5.15;1.55;;;;;;;20.17;65.49;101742.53;5010998;28;20041;-76
2023/06/26 08:32:15;;;;;;;4.28;1.35;;;;;;;20.17;64.99;101744.34;5010986;28;20037;-76
2023/06/26 08:34:40;;;;;;;3.10;1.20;;;;;;;20.18;65.74;101738.94;5020653;28;20056;-76
2023/06/26 08:37:08;;;;;;;3.05;1.20;;;;;;;20.18;65.81;101748.72;5012122;28;20052;-76
2023/06/26 08:39:34;;;;;;;4.88;1.25;;;;;;;20.20;66.01;101752.13;5019726;28;20260;-76
2023/06/26 08:41:59;;;;;;;6.47;1.70;;;;;;;20.20;65.52;101752.13;5011430;28;20036;-76
2023/06/26 08:44:25;;;;;;;3.95;1.50;;;;;;;20.18;64.97;101768.19;5011615;28;20052;-76
2023/06/26 08:46:51;;;;;;;6.00;1.60;;;;;;;20.15;64.41;101771.03;5010545;28;20221;-76
2023/06/26 08:49:25;;;;;;;3.03;1.05;;;;;;;20.12;64.68;101772.13;5011400;28;20047;-75
2023/06/26 08:51:56;;;;;;;4.30;1.45;;;;;;;20.11;64.16;101761.56;5010629;28;20373;-76
2023/06/26 08:54:28;;;;;;;4.50;1.30;;;;;;;20.10;64.47;101758.06;5003253;28;20062;-76
2023/06/26 08:56:55;;;;;;;1.67;1.10;;;;;;;20.11;64.78;101762.41;5012726;28;20057;-76
2023/06/26 08:59:21;;;;;;;8.75;1.58;;;;;;;20.13;64.79;101773.81;4991063;28;20066;-76
2023/06/26 09:01:47;;;;;;;2.65;1.00;;;;;;;20.16;64.83;101774.56;5006255;28;20042;-76
2023/06/26 09:04:13;;;;;;;2.67;1.25;;;;;;;20.16;64.20;101770.09;5022216;28;20041;-76
2023/06/26 09:06:39;;;;;;;2.58;1.20;;;;;;;20.18;64.20;101775.31;5011924;28;20318;-76
2023/06/26 09:09:04;;;;;;;2.58;1.15;;;;;;;20.18;64.70;101778.81;5011719;28;20346;-76
2023/06/26 09:11:30;;;;;;;2.05;1.20;;;;;;;20.19;64.60;101783.19;5012107;28;20348;-76
2023/06/26 09:13:55;;;;;;;2.00;0.90;;;;;;;20.22;64.73;101782.13;4994585;28;20026;-76
2023/06/26 09:16:28;;;;;;;3.28;1.08;;;;;;;20.23;64.60;101789.13;5012696;28;20225;-76
2023/06/26 09:18:56;;;;;;;1.75;1.00;;;;;;;20.24;64.57;101798.84;4999806;28;20048;-76
2023/06/26 09:21:24;;;;;;;1.98;1.15;;;;;;;20.26;64.61;101800.44;5021160;28;20080;-76
2023/06/26 09:23:50;;;;;;;7.65;1.65;;;;;;;20.25;64.44;101793.41;4994396;28;20104;-76
2023/06/26 09:26:16;;;;;;;4.72;1.70;;;;;;;20.23;64.15;101805.09;5012206;28;20035;-76
2023/06/26 09:28:43;;;;;;;3.47;1.58;;;;;;;20.19;63.82;101809.75;5012683;28;20064;-76
2023/06/26 09:31:10;;;;;;;3.38;1.10;;;;;;;20.19;64.16;101809.75;5014071;28;20402;-76
2023/06/26 09:33:36;;;;;;;2.47;1.15;;;;;;;20.20;64.31;101810.66;5017035;28;20042;-76
2023/06/26 09:36:09;;;;;;;3.03;1.20;;;;;;;20.20;64.27;101806.16;4998615;28;20382;-76
2023/06/26 09:38:35;;;;;;;3.92;1.52;;;;;;;20.23;64.53;101826.38;4996708;28;20029;-76
2023/06/26 09:41:02;;;;;;;7.05;1.75;;;;;;;20.19;63.69;101825.72;5015259;28;20030;-76
2023/06/26 09:43:27;;;;;;;5.20;1.80;;;;;;;20.18;64.01;101828.50;5015269;28;20030;-76
2023/06/26 09:45:54;;;;;;;8.07;1.73;;;;;;;20.16;63.94;101825.09;5015277;28;20083;-76
2023/06/26 09:48:19;;;;;;;2.95;1.50;;;;;;;20.17;64.32;101834.78;5013654;28;20030;-76
2023/06/26 09:50:46;;;;;;;3.72;1.52;;;;;;;20.18;64.54;101836.50;5025836;28;20262;-76
2023/06/26 09:53:13;;;;;;;2.83;1.52;;;;;;;20.18;64.24;101841.81;5018338;28;20100;-76
2023/06/26 09:55:43;;;;;;;2.33;1.30;;;;;;;20.18;64.45;101832.00;5020799;28;20092;-76
2023/06/26 09:58:14;;;;;;;5.95;2.10;;;;;;;20.21;64.24;101833.59;4996671;28;20037;-76
2023/06/26 10:00:40;;;;;;;6.30;1.63;;;;;;;20.20;64.30;101851.38;5018806;28;20400;-76
2023/06/26 10:03:06;;;;;;;5.35;1.42;;;;;;;20.19;63.67;101847.00;5014830;28;20091;-76
2023/06/26 10:05:31;;;;;;;7.15;1.50;;;;;;;20.21;64.22;101854.88;5022894;28;20038;-76
2023/06/26 10:07:57;;;;;;;3.53;1.30;;;;;;;20.22;64.32;101851.28;5014159;28;20451;-76
2023/06/26 10:10:23;;;;;;;1.23;0.98;;;;;;;20.22;64.39;101857.44;5014308;28;20116;-76
2023/06/26 10:12:54;;;;;;;8.75;1.60;;;;;;;20.24;64.32;101844.91;5014454;28;20033;-76
2023/06/26 10:15:21;;;;;;;2.17;1.13;;;;;;;20.26;64.15;101855.44;5014644;28;20139;-76
2023/06/26 10:17:48;;;;;;;1.25;1.10;;;;;;;20.28;64.41;101857.06;5014012;28;20209;-76
2023/06/26 10:20:14;;;;;;;2.97;1.27;;;;;;;20.31;64.41;101856.00;5014248;28;20053;-76
2023/06/26 10:22:44;;;;;;;10.65;1.90;;;;;;;20.30;62.55;101863.13;5014846;28;20192;-76
2023/06/26 10:25:12;;;;;;;2.97;1.20;;;;;;;20.29;63.16;101864.06;5006613;28;20025;-76
2023/06/26 10:27:43;;;;;;;3.07;1.17;;;;;;;20.30;63.01;101864.91;5000436;28;20456;-76
2023/06/26 10:30:17;;;;;;;1.80;1.15;;;;;;;20.32;63.40;101871.88;5002314;28;20363;-76
2023/06/26 10:32:43;;;;;;;1.45;0.88;;;;;;;20.33;63.26;101870.03;5006079;28;20327;-76
2023/06/26 10:35:11;;;;;;;2.13;0.85;;;;;;;20.35;62.77;101875.28;5008397;28;20109;-76
2023/06/26 10:37:47;;;;;;;2.22;0.85;;;;;;;20.37;62.39;101876.03;5006995;28;20318;-76
2023/06/26 10:40:14;;;;;;;3.13;1.08;;;;;;;20.38;62.79;101872.41;5013667;28;20343;-76
2023/06/26 10:42:40;;;;;;;3.28;0.93;;;;;;;20.37;62.67;101890.16;5002687;28;20316;-76
2023/06/26 10:45:28;;;;;;;2.40;1.08;;;;;;;20.35;61.47;101886.75;5013212;28;20386;-76
2023/06/26 10:47:53;;;;;;;2.70;1.10;;;;;;;20.35;61.90;101883.25;5004586;28;20385;-76
2023/06/26 10:50:30;;;;;;;0.77;0.77;;;;;;;20.38;62.21;101891.88;5009274;28;20132;-76
2023/06/26 10:53:26;;;;;;;1.38;0.80;;;;;;;20.42;62.30;101890.72;5009177;28;20048;-76
2023/06/26 10:55:56;;;;;;;4.07;1.40;;;;;;;20.41;59.83;101897.00;4986527;28;20132;-76
2023/06/26 10:58:31;;;;;;;4.88;1.50;;;;;;;20.38;59.55;101904.34;5013951;28;20220;-76
2023/06/26 11:01:14;;;;;;;1.35;0.80;;;;;;;20.36;60.31;101911.56;4993500;28;20038;-76
2023/06/26 11:03:58;;;;;;;2.67;0.93;;;;;;;20.41;60.92;101912.09;5010384;28;20356;-76
2023/06/26 11:06:23;;;;;;;2.08;0.98;;;;;;;20.40;60.21;101911.25;5013626;28;20055;-76
2023/06/26 11:08:53;;;;;;;2.90;0.90;;;;;;;20.38;59.45;101899.88;5013836;28;20359;-76
2023/06/26 11:11:19;;;;;;;2.67;1.35;;;;;;;20.39;59.78;101914.00;5014256;28;20148;-76
2023/06/26 11:13:46;;;;;;;5.63;0.90;;;;;;;20.39;59.59;101909.56;4993359;28;20030;-76
2023/06/26 11:16:12;;;;;;;5.68;1.10;;;;;;;20.39;60.15;101920.22;5012843;28;20044;-76
2023/06/26 11:18:38;;;;;;;3.90;1.15;;;;;;;20.39;59.62;101914.00;5013963;28;20498;-76
2023/06/26 11:21:07;;;;;;;3.58;1.30;;;;;;;20.41;59.84;101915.63;5012557;28;20370;-77
2023/06/26 11:23:34;;;;;;;5.47;1.33;;;;;;;20.41;59.91;101930.72;4998350;28;20038;-76